createdAt,value
2023-01-01T00:00:27.021Z,53.28
2023-01-01T00:02:53.594Z,55.22
2023-01-01T00:05:20.087Z,52.15
2023-01-01T00:07:46.579Z,55.97
2023-01-01T00:10:13.047Z,50.42
2023-01-01T00:12:39.565Z,49.75
2023-01-01T00:15:06.886Z,42.80
2023-01-01T00:17:33.438Z,38.17
2023-01-01T00:19:59.904Z,29.20
2023-01-01T00:25:13.006Z,25.13
2023-01-01T00:27:40.447Z,27.83
2023-01-01T00:30:09.579Z,22.60
2023-01-01T00:32:36.337Z,23.05
2023-01-01T00:35:03.076Z,18.30
2023-01-01T00:37:29.752Z,16.13
2023-01-01T00:39:56.291Z,17.63
2023-01-01T00:42:23.000Z,18.35
2023-01-01T00:44:49.523Z,21.25
2023-01-01T00:47:15.973Z,19.80
2023-01-01T00:49:42.500Z,16.00
2023-01-01T00:52:08.992Z,15.55
2023-01-01T00:54:35.520Z,17.00
2023-01-01T00:57:02.087Z,16.83
2023-01-01T00:59:29.229Z,16.63
2023-01-01T01:01:56.313Z,12.67
2023-01-01T01:04:23.218Z,11.23
2023-01-01T01:06:49.883Z,11.38
2023-01-01T01:09:16.509Z,10.55
2023-01-01T01:11:43.142Z,10.38
2023-01-01T01:14:09.679Z,11.57
2023-01-01T01:16:36.370Z,7.65
2023-01-01T01:19:05.654Z,8.30
2023-01-01T01:21:34.034Z,6.45
2023-01-01T01:24:02.460Z,7.05
2023-01-01T01:26:31.623Z,7.03
2023-01-01T01:28:58.272Z,6.60
2023-01-01T01:31:28.429Z,7.72
2023-01-01T01:33:55.242Z,7.75
2023-01-01T01:36:22.167Z,7.25
2023-01-01T01:38:48.871Z,7.00
2023-01-01T01:41:27.340Z,9.02
2023-01-01T01:44:00.988Z,8.13
2023-01-01T01:46:41.418Z,8.90
2023-01-01T01:49:20.474Z,7.72
2023-01-01T01:51:47.911Z,7.18
2023-01-01T01:54:19.658Z,9.10
2023-01-01T01:56:54.267Z,6.32
2023-01-01T01:59:24.724Z,7.43
2023-01-01T02:01:52.432Z,6.38
2023-01-01T02:04:18.911Z,7.40
2023-01-01T02:06:45.835Z,6.68
2023-01-01T02:09:13.262Z,6.70
2023-01-01T02:11:39.815Z,5.43
2023-01-01T02:14:06.867Z,4.75
2023-01-01T02:16:57.836Z,4.75
2023-01-01T02:19:44.608Z,4.10
2023-01-01T02:22:27.011Z,4.38
2023-01-01T02:25:14.182Z,4.28
2023-01-01T02:27:52.649Z,4.78
2023-01-01T02:30:19.997Z,4.43
2023-01-01T02:32:51.860Z,4.23
2023-01-01T02:35:22.834Z,4.60
2023-01-01T02:37:52.195Z,4.30
2023-01-01T02:40:21.996Z,4.97
2023-01-01T02:42:50.621Z,4.65
2023-01-01T02:45:17.178Z,4.43
2023-01-01T02:47:43.823Z,6.15
2023-01-01T02:50:18.962Z,4.32
2023-01-01T02:52:57.257Z,5.30
2023-01-01T02:55:47.820Z,4.35
2023-01-01T02:58:25.267Z,5.95
2023-01-01T03:00:56.729Z,5.88
2023-01-01T03:03:40.173Z,4.32
2023-01-01T03:06:26.006Z,6.13
2023-01-01T03:09:29.491Z,4.90
2023-01-01T03:12:32.075Z,5.00
2023-01-01T03:15:06.986Z,5.18
2023-01-01T03:17:38.252Z,4.13
2023-01-01T03:20:11.831Z,4.10
2023-01-01T03:25:12.133Z,3.95
2023-01-01T03:27:48.842Z,2.90
2023-01-01T03:30:17.931Z,2.95
2023-01-01T03:32:54.484Z,2.50
2023-01-01T03:35:24.515Z,3.00
2023-01-01T03:37:55.760Z,3.60
2023-01-01T03:40:23.235Z,4.32
2023-01-01T03:42:59.413Z,13.60
2023-01-01T03:45:31.408Z,11.00
2023-01-01T03:47:57.894Z,7.70
2023-01-01T03:50:32.151Z,4.30
2023-01-01T03:53:17.044Z,3.88
2023-01-01T03:55:53.942Z,3.05
2023-01-01T03:58:40.891Z,4.00
2023-01-01T04:01:37.831Z,3.17
2023-01-01T04:04:06.720Z,2.58
2023-01-01T04:09:03.002Z,5.40
2023-01-01T04:11:32.493Z,3.45
2023-01-01T04:14:01.215Z,3.55
2023-01-01T04:16:27.845Z,3.45
2023-01-01T04:18:54.553Z,3.92
2023-01-01T04:21:21.109Z,3.38
2023-01-01T04:23:47.695Z,4.00
2023-01-01T04:26:15.256Z,3.17
2023-01-01T04:28:42.680Z,2.78
2023-01-01T04:31:10.066Z,4.80
2023-01-01T04:33:36.955Z,4.80
2023-01-01T04:36:09.580Z,4.55
2023-01-01T04:38:37.438Z,4.90
2023-01-01T04:41:04.708Z,4.45
2023-01-01T04:43:32.158Z,4.73
2023-01-01T04:46:01.086Z,4.67
2023-01-01T04:48:29.207Z,5.05
2023-01-01T04:51:01.442Z,4.97
2023-01-01T04:53:33.278Z,4.90
2023-01-01T04:56:13.232Z,5.00
2023-01-01T04:58:41.264Z,4.63
2023-01-01T05:01:08.801Z,5.32
2023-01-01T05:03:37.067Z,4.75
2023-01-01T05:08:33.037Z,4.78
2023-01-01T05:13:37.388Z,4.80
2023-01-01T05:16:05.912Z,5.25
2023-01-01T05:18:33.188Z,6.55
2023-01-01T05:21:01.092Z,4.13
2023-01-01T05:23:30.639Z,4.72
2023-01-01T05:25:57.702Z,5.38
2023-01-01T05:28:24.561Z,5.20
2023-01-01T05:30:52.231Z,4.82
2023-01-01T05:33:19.580Z,4.32
2023-01-01T05:35:46.269Z,4.22
2023-01-01T05:38:12.760Z,4.22
2023-01-01T05:40:39.546Z,3.90
2023-01-01T05:43:07.381Z,4.20
2023-01-01T05:45:34.098Z,4.35
2023-01-01T05:48:00.749Z,3.58
2023-01-01T05:50:27.285Z,4.90
2023-01-01T05:52:53.766Z,4.43
2023-01-01T05:55:20.331Z,4.47
2023-01-01T05:57:46.833Z,4.28
2023-01-01T06:00:14.225Z,4.97
2023-01-01T06:02:40.865Z,4.95
2023-01-01T06:05:07.815Z,4.75
2023-01-01T06:07:34.301Z,5.03
2023-01-01T06:10:02.127Z,4.75
2023-01-01T06:12:28.869Z,4.43
2023-01-01T06:14:55.331Z,5.03
2023-01-01T06:17:21.806Z,4.70
2023-01-01T06:19:48.303Z,4.28
2023-01-01T06:22:14.842Z,5.30
2023-01-01T06:24:41.305Z,3.58
2023-01-01T06:27:07.835Z,3.70
2023-01-01T06:29:34.363Z,4.28
2023-01-01T06:32:00.941Z,5.35
2023-01-01T06:34:27.442Z,5.15
2023-01-01T06:36:53.923Z,5.10
2023-01-01T06:39:20.597Z,4.57
2023-01-01T06:41:47.161Z,4.65
2023-01-01T06:44:13.884Z,5.30
2023-01-01T06:46:40.501Z,4.70
2023-01-01T06:49:11.488Z,4.65
2023-01-01T06:51:42.921Z,5.53
2023-01-01T06:54:10.576Z,4.88
2023-01-01T06:56:37.487Z,4.65
2023-01-01T06:59:05.158Z,4.45
2023-01-01T07:01:33.704Z,5.22
2023-01-01T07:04:03.205Z,4.63
2023-01-01T07:06:32.075Z,5.32
2023-01-01T07:08:58.854Z,5.20
2023-01-01T07:11:26.078Z,5.15
2023-01-01T07:13:53.071Z,5.32
2023-01-01T07:16:20.618Z,5.78
2023-01-01T07:18:47.234Z,5.07
2023-01-01T07:21:53.740Z,6.13
2023-01-01T07:24:21.257Z,5.53
2023-01-01T07:26:49.717Z,5.65
2023-01-01T07:29:16.291Z,5.03
2023-01-01T07:31:44.225Z,3.97
2023-01-01T07:34:16.283Z,3.08
2023-01-01T07:36:42.809Z,3.10
2023-01-01T07:39:10.477Z,4.85
2023-01-01T07:41:37.089Z,4.00
2023-01-01T07:44:03.719Z,3.80
2023-01-01T07:46:30.311Z,3.95
2023-01-01T07:48:58.061Z,3.50
2023-01-01T07:51:24.760Z,4.00
2023-01-01T07:53:51.253Z,3.80
2023-01-01T07:56:18.062Z,3.67
2023-01-01T07:58:44.611Z,4.00
2023-01-01T08:01:13.241Z,3.55
2023-01-01T08:03:40.232Z,4.65
2023-01-01T08:06:12.325Z,4.03
2023-01-01T08:08:39.011Z,4.35
2023-01-01T08:11:05.972Z,4.22
2023-01-01T08:13:32.742Z,3.90
2023-01-01T08:15:59.353Z,4.28
2023-01-01T08:18:26.079Z,3.65
2023-01-01T08:20:52.596Z,3.92
2023-01-01T08:23:19.156Z,4.55
2023-01-01T08:25:45.776Z,3.97
2023-01-01T08:28:12.272Z,4.75
2023-01-01T08:30:38.773Z,4.05
2023-01-01T08:33:05.258Z,3.03
2023-01-01T08:35:31.860Z,2.65
2023-01-01T08:37:58.326Z,2.78
2023-01-01T08:40:24.803Z,2.85
2023-01-01T08:42:51.305Z,2.35
2023-01-01T08:45:17.937Z,2.58
2023-01-01T08:47:44.471Z,2.38
2023-01-01T08:50:11.155Z,2.05
2023-01-01T08:52:37.714Z,2.28
2023-01-01T08:55:04.539Z,3.03
2023-01-01T08:57:31.254Z,2.80
2023-01-01T08:59:57.709Z,2.72
2023-01-01T09:02:24.365Z,2.67
2023-01-01T09:04:51.985Z,2.92
2023-01-01T09:07:18.913Z,2.80
2023-01-01T09:09:45.409Z,3.05
2023-01-01T09:12:15.815Z,2.70
2023-01-01T09:14:42.883Z,2.45
2023-01-01T09:17:09.460Z,2.10
2023-01-01T09:19:35.980Z,1.80
2023-01-01T09:22:02.655Z,1.58
2023-01-01T09:24:29.354Z,1.50
2023-01-01T09:26:58.024Z,2.00
2023-01-01T09:29:24.737Z,1.75
2023-01-01T09:31:51.303Z,1.42
2023-01-01T09:34:18.103Z,3.05
2023-01-01T09:36:46.171Z,2.28
2023-01-01T09:39:14.785Z,1.92
2023-01-01T09:42:40.207Z,1.80
2023-01-01T09:45:17.211Z,2.25
2023-01-01T09:47:50.948Z,2.17
2023-01-01T09:50:19.605Z,2.35
2023-01-01T09:52:54.190Z,2.20
2023-01-01T09:55:43.606Z,1.23
2023-01-01T09:58:11.955Z,1.70
2023-01-01T10:00:45.355Z,1.27
2023-01-01T10:03:35.152Z,1.00
2023-01-01T10:06:23.491Z,1.05
2023-01-01T10:09:26.365Z,1.23
2023-01-01T10:11:57.529Z,1.67
2023-01-01T10:14:39.092Z,2.33
2023-01-01T10:17:18.373Z,0.90
2023-01-01T10:19:50.519Z,1.55
2023-01-01T10:22:22.572Z,1.45
2023-01-01T10:25:00.975Z,1.13
2023-01-01T10:27:46.244Z,1.20
2023-01-01T10:30:17.210Z,1.60
2023-01-01T10:32:56.995Z,2.70
2023-01-01T10:35:30.866Z,1.33
2023-01-01T10:38:00.019Z,1.20
2023-01-01T10:40:28.640Z,0.52
2023-01-01T10:43:00.903Z,0.90
2023-01-01T10:45:32.945Z,1.13
2023-01-01T10:48:13.445Z,0.85
2023-01-01T10:50:46.304Z,0.85
2023-01-01T10:53:21.531Z,0.73
2023-01-01T10:55:50.575Z,0.73
2023-01-01T10:58:41.267Z,1.08
2023-01-01T11:01:10.865Z,0.85
2023-01-01T11:03:37.840Z,0.60
2023-01-01T11:06:20.320Z,0.88
2023-01-01T11:08:49.792Z,0.90
2023-01-01T11:11:22.084Z,0.85
2023-01-01T11:13:54.612Z,0.60
2023-01-01T11:16:22.066Z,0.80
2023-01-01T11:18:50.503Z,0.57
2023-01-01T11:21:23.120Z,0.80
2023-01-01T11:24:07.950Z,0.95
2023-01-01T11:26:34.418Z,0.80
2023-01-01T11:29:18.879Z,1.08
2023-01-01T11:31:47.051Z,0.98
2023-01-01T11:37:19.157Z,1.03
2023-01-01T11:39:49.203Z,0.82
2023-01-01T11:42:22.453Z,1.55
2023-01-01T11:44:53.834Z,1.30
2023-01-01T11:47:26.088Z,1.30
2023-01-01T11:50:12.213Z,1.10
2023-01-01T11:52:41.141Z,0.93
2023-01-01T11:55:25.950Z,1.00
2023-01-01T11:58:19.214Z,1.15
2023-01-01T12:00:49.298Z,1.45
2023-01-01T12:03:33.378Z,1.77
2023-01-01T12:06:03.461Z,2.30
2023-01-01T12:08:39.576Z,1.90
2023-01-01T12:11:10.536Z,2.50
2023-01-01T12:13:59.804Z,2.05
2023-01-01T12:16:50.448Z,2.05
2023-01-01T12:19:45.532Z,2.33
2023-01-01T12:22:17.703Z,1.83
2023-01-01T12:24:46.273Z,2.22
2023-01-01T12:27:25.210Z,2.83
2023-01-01T12:29:57.975Z,2.20
2023-01-01T12:32:33.419Z,2.38
2023-01-01T12:35:18.410Z,1.95
2023-01-01T12:38:10.175Z,2.33
2023-01-01T12:40:50.472Z,2.78
2023-01-01T12:44:11.104Z,2.50
2023-01-01T12:46:45.075Z,2.45
2023-01-01T12:49:23.445Z,2.42
2023-01-01T12:52:04.110Z,3.20
2023-01-01T12:55:13.104Z,2.90
2023-01-01T12:57:51.935Z,2.28
2023-01-01T13:00:20.544Z,2.65
2023-01-01T13:03:00.649Z,1.88
2023-01-01T13:05:45.529Z,1.77
2023-01-01T13:08:12.179Z,3.05
2023-01-01T13:10:42.833Z,2.03
2023-01-01T13:13:12.543Z,2.30
2023-01-01T13:15:39.045Z,1.73
2023-01-01T13:18:08.443Z,1.50
2023-01-01T13:20:42.439Z,1.45
2023-01-01T13:23:33.686Z,1.50
2023-01-01T13:26:18.071Z,1.35
2023-01-01T13:28:59.727Z,1.40
2023-01-01T13:31:38.162Z,1.75
2023-01-01T13:34:32.277Z,0.93
2023-01-01T13:37:24.525Z,1.63
2023-01-01T13:40:00.726Z,0.70
2023-01-01T13:42:47.280Z,1.38
2023-01-01T13:45:15.539Z,0.98
2023-01-01T13:48:05.541Z,1.05
2023-01-01T13:50:52.249Z,0.90
2023-01-01T13:53:46.275Z,0.98
2023-01-01T13:56:24.703Z,1.02
2023-01-01T13:59:30.940Z,1.13
2023-01-01T14:02:17.583Z,1.33
2023-01-01T14:04:46.631Z,1.65
2023-01-01T14:10:18.168Z,1.58
2023-01-01T14:12:44.898Z,1.50
2023-01-01T14:15:23.718Z,2.17
2023-01-01T14:17:52.245Z,1.10
2023-01-01T14:20:22.832Z,1.02
2023-01-01T14:22:51.829Z,1.30
2023-01-01T14:25:26.825Z,1.17
2023-01-01T14:27:56.669Z,1.20
2023-01-01T14:30:24.748Z,1.27
2023-01-01T14:35:25.274Z,1.65
2023-01-01T14:37:52.001Z,0.80
2023-01-01T14:40:28.985Z,1.67
2023-01-01T14:43:09.589Z,0.77
2023-01-01T14:45:36.906Z,1.10
2023-01-01T14:48:05.287Z,1.10
2023-01-01T14:50:33.600Z,1.05
2023-01-01T14:53:06.702Z,1.10
2023-01-01T14:55:39.551Z,1.15
2023-01-01T14:58:06.630Z,1.40
2023-01-01T15:00:34.081Z,1.50
2023-01-01T15:03:12.385Z,1.45
2023-01-01T15:05:39.351Z,1.05
2023-01-01T15:08:07.829Z,1.58
2023-01-01T15:10:38.337Z,1.42
2023-01-01T15:13:07.020Z,1.35
2023-01-01T15:15:34.777Z,1.60
2023-01-01T15:18:01.257Z,1.48
2023-01-01T15:20:27.966Z,1.42
2023-01-01T15:22:54.958Z,1.50
2023-01-01T15:25:21.700Z,1.50
2023-01-01T15:27:50.534Z,1.63
2023-01-01T15:30:29.167Z,1.45
2023-01-01T15:32:56.479Z,3.85
2023-01-01T15:35:32.594Z,4.50
2023-01-01T15:38:18.219Z,3.70
2023-01-01T15:40:51.019Z,3.17
2023-01-01T15:43:20.869Z,2.10
2023-01-01T15:46:11.618Z,2.50
2023-01-01T15:48:48.817Z,2.05
2023-01-01T15:51:24.381Z,2.50
2023-01-01T15:54:00.774Z,1.90
2023-01-01T15:56:30.555Z,1.67
2023-01-01T15:59:09.105Z,1.73
2023-01-01T16:01:40.203Z,1.73
2023-01-01T16:04:28.260Z,2.30
2023-01-01T16:06:57.406Z,1.33
2023-01-01T16:09:24.047Z,1.75
2023-01-01T16:11:56.050Z,1.75
2023-01-01T16:14:23.643Z,1.90
2023-01-01T16:16:58.289Z,1.83
2023-01-01T16:19:25.322Z,1.40
2023-01-01T16:21:51.852Z,2.53
2023-01-01T16:24:19.665Z,2.25
2023-01-01T16:26:47.739Z,1.75
2023-01-01T16:31:43.145Z,1.85
2023-01-01T16:34:16.975Z,2.42
2023-01-01T16:36:44.779Z,2.33
2023-01-01T16:39:11.721Z,2.97
2023-01-01T16:41:42.398Z,2.92
2023-01-01T16:44:12.690Z,3.63
2023-01-01T16:46:39.221Z,2.53
2023-01-01T16:49:05.770Z,3.13
2023-01-01T16:51:33.158Z,2.95
2023-01-01T16:54:00.081Z,2.55
2023-01-01T16:56:28.303Z,2.53
2023-01-01T17:01:30.117Z,1.58
2023-01-01T17:03:56.800Z,1.77
2023-01-01T17:06:23.317Z,2.60
2023-01-01T17:08:50.835Z,1.77
2023-01-01T17:11:18.710Z,2.03
2023-01-01T17:13:47.216Z,2.00
2023-01-01T17:16:21.154Z,2.20
2023-01-01T17:24:07.508Z,2.08
2023-01-01T17:26:34.352Z,2.88
2023-01-01T17:29:01.419Z,2.97
2023-01-01T17:31:28.299Z,3.67
2023-01-01T17:33:54.875Z,3.78
2023-01-01T17:36:21.341Z,4.25
2023-01-01T17:38:47.943Z,4.22
2023-01-01T17:41:16.382Z,3.10
2023-01-01T17:43:46.035Z,4.95
2023-01-01T17:46:15.158Z,4.13
2023-01-01T17:48:43.114Z,5.15
2023-01-01T17:51:09.969Z,5.68
2023-01-01T17:53:36.674Z,5.10
2023-01-01T17:56:03.249Z,4.88
2023-01-01T17:58:35.257Z,5.22
2023-01-01T18:01:23.704Z,4.35
2023-01-01T18:04:09.017Z,5.70
2023-01-01T18:06:42.545Z,4.00
2023-01-01T18:09:12.984Z,4.93
2023-01-01T18:11:39.784Z,4.00
2023-01-01T18:14:06.388Z,5.05
2023-01-01T18:16:35.833Z,4.13
2023-01-01T18:19:02.577Z,4.15
2023-01-01T18:21:30.212Z,4.03
2023-01-01T18:23:57.945Z,4.18
2023-01-01T18:26:27.657Z,3.75
2023-01-01T18:28:59.311Z,3.83
2023-01-01T18:31:27.517Z,3.47
2023-01-01T18:33:54.708Z,2.92
2023-01-01T18:36:25.657Z,2.75
2023-01-01T18:39:09.714Z,2.70
2023-01-01T18:41:48.457Z,1.92
2023-01-01T18:44:25.928Z,2.67
2023-01-01T18:47:01.962Z,2.08
2023-01-01T18:49:28.521Z,2.60
2023-01-01T18:52:12.456Z,2.50
2023-01-01T18:54:39.059Z,1.63
2023-01-01T18:57:13.626Z,2.78
2023-01-01T18:59:40.453Z,2.63
2023-01-01T19:02:33.740Z,2.35
2023-01-01T19:05:13.909Z,2.65
2023-01-01T19:07:41.819Z,1.98
2023-01-01T19:10:14.158Z,2.22
2023-01-01T19:12:40.760Z,2.05
2023-01-01T19:15:18.027Z,2.15
2023-01-01T19:17:44.990Z,2.95
2023-01-01T19:20:21.559Z,1.47
2023-01-01T19:22:48.273Z,2.00
2023-01-01T19:25:37.074Z,1.73
2023-01-01T19:28:15.561Z,1.73
2023-01-01T19:30:43.730Z,2.83
2023-01-01T19:33:10.237Z,3.00
2023-01-01T19:35:36.954Z,2.58
2023-01-01T19:38:03.755Z,1.80
2023-01-01T19:40:30.630Z,2.17
2023-01-01T19:42:57.852Z,2.15
2023-01-01T19:45:24.714Z,1.85
2023-01-01T19:47:51.223Z,2.08
2023-01-01T19:50:17.719Z,1.60
2023-01-01T19:52:44.242Z,1.95
2023-01-01T19:55:10.773Z,1.80
2023-01-01T19:57:37.250Z,2.55
2023-01-01T20:00:04.437Z,1.70
2023-01-01T20:02:47.605Z,2.03
2023-01-01T20:05:14.739Z,2.05
2023-01-01T20:07:41.349Z,1.70
2023-01-01T20:10:08.312Z,1.50
2023-01-01T20:12:34.966Z,1.55
2023-01-01T20:15:01.502Z,1.38
2023-01-01T20:17:28.117Z,1.63
2023-01-01T20:19:54.668Z,1.65
2023-01-01T20:22:21.139Z,1.83
2023-01-01T20:24:48.222Z,1.77
2023-01-01T20:27:16.565Z,1.80
2023-01-01T20:29:43.854Z,1.83
2023-01-01T20:32:10.662Z,1.80
2023-01-01T20:34:37.348Z,1.50
2023-01-01T20:37:03.861Z,1.70
2023-01-01T20:39:30.425Z,1.88
2023-01-01T20:41:57.075Z,1.90
2023-01-01T20:44:23.844Z,1.48
2023-01-01T20:46:50.336Z,1.40
2023-01-01T20:49:17.906Z,1.25
2023-01-01T20:51:45.599Z,1.52
2023-01-01T20:54:12.196Z,1.30
2023-01-01T20:56:38.738Z,1.27
2023-01-01T20:59:24.623Z,1.15
2023-01-01T21:01:52.158Z,1.80
2023-01-01T21:04:18.827Z,1.35
2023-01-01T21:06:45.304Z,1.70
2023-01-01T21:09:11.802Z,1.27
2023-01-01T21:11:38.420Z,1.50
2023-01-01T21:14:05.020Z,1.30
2023-01-01T21:16:34.591Z,1.13
2023-01-01T21:19:02.323Z,1.48
2023-01-01T21:21:41.677Z,1.20
2023-01-01T21:24:19.199Z,1.30
2023-01-01T21:26:46.093Z,1.20
2023-01-01T21:29:19.256Z,1.48
2023-01-01T21:31:47.166Z,1.00
2023-01-01T21:34:24.796Z,1.10
2023-01-01T21:36:51.366Z,1.20
2023-01-01T21:39:28.974Z,1.60
2023-01-01T21:42:06.318Z,1.80
2023-01-01T21:44:33.065Z,1.15
2023-01-01T21:47:02.166Z,1.15
2023-01-01T21:49:36.671Z,1.58
2023-01-01T21:52:15.121Z,1.25
2023-01-01T21:54:41.808Z,1.27
2023-01-01T21:57:18.770Z,2.08
2023-01-01T21:59:50.607Z,1.30
2023-01-01T22:02:38.413Z,1.20
2023-01-01T22:05:30.314Z,1.83
2023-01-01T22:07:58.151Z,1.30
2023-01-01T22:12:59.283Z,1.58
2023-01-01T22:15:26.505Z,1.42
2023-01-01T22:18:04.135Z,1.50
2023-01-01T22:20:34.558Z,1.00
2023-01-01T22:23:05.244Z,1.10
2023-01-01T22:25:32.915Z,1.30
2023-01-01T22:30:43.771Z,1.52
2023-01-01T22:33:19.196Z,1.50
2023-01-01T22:35:45.778Z,1.52
2023-01-01T22:38:21.529Z,1.13
2023-01-01T22:40:51.620Z,1.17
2023-01-01T22:43:23.447Z,1.15
2023-01-01T22:45:50.704Z,1.10
2023-01-01T22:48:38.343Z,1.42
2023-01-01T22:51:21.615Z,1.45
2023-01-01T22:53:48.653Z,1.45
2023-01-01T22:56:16.078Z,1.58
2023-01-01T22:58:42.617Z,1.33
2023-01-01T23:01:09.635Z,1.38
2023-01-01T23:03:36.145Z,1.25
2023-01-01T23:06:03.341Z,1.20
2023-01-01T23:08:30.289Z,1.92
2023-01-01T23:10:57.900Z,1.27
2023-01-01T23:13:24.393Z,1.15
2023-01-01T23:15:55.616Z,1.20
2023-01-01T23:18:22.416Z,1.42
2023-01-01T23:20:48.905Z,1.52
2023-01-01T23:23:15.541Z,2.13
2023-01-01T23:25:42.143Z,1.80
2023-01-01T23:28:09.103Z,2.08
2023-01-01T23:30:35.946Z,1.75
2023-01-01T23:33:02.530Z,1.70
2023-01-01T23:35:29.240Z,1.85
2023-01-01T23:37:55.905Z,1.73
2023-01-01T23:40:22.450Z,2.30
2023-01-01T23:42:49.006Z,1.70
2023-01-01T23:45:15.642Z,1.92
2023-01-01T23:47:42.249Z,1.80
2023-01-01T23:50:09.116Z,2.85
2023-01-01T23:52:35.893Z,1.77
2023-01-01T23:55:02.456Z,2.00
2023-01-01T23:57:29.117Z,1.63
2023-01-01T23:59:55.702Z,2.05
